Time;durP1;ratioP1;P1;durP2;ratioP2;P2;SDS_P1;SDS_P2;PMS_P1;PMS_P2;Temp;Humidity;BMP_temperature;BMP_pressure;BME280_temperature;BME280_humidity;BME280_pressure;Samples;Min_cycle;Max_cycle;Signal;HPM_P1;HPM_P2
2021/08/18 00:00:47;;;;;;;4.63;2.83;;;18.90;77.20;;;;;;5002375;28;20038;-76
2021/08/18 00:03:14;;;;;;;6.95;2.88;;;18.90;77.20;;;;;;5011825;28;20037;-76
2021/08/18 00:05:41;;;;;;;4.60;2.60;;;18.80;77.90;;;;;;5013268;28;20048;-76
2021/08/18 00:08:08;;;;;;;8.65;2.63;;;18.80;77.30;;;;;;5012340;28;20029;-76
2021/08/18 00:10:34;;;;;;;4.65;2.50;;;18.70;77.30;;;;;;5013962;28;20083;-76
2021/08/18 00:13:01;;;;;;;7.32;3.15;;;18.70;77.30;;;;;;5006624;28;20046;-76
2021/08/18 00:15:28;;;;;;;6.40;3.03;;;18.70;77.40;;;;;;5014488;28;20045;-76
2021/08/18 00:18:00;;;;;;;10.18;2.97;;;18.70;77.40;;;;;;5010586;28;20378;-76
2021/08/18 00:20:29;;;;;;;11.77;2.78;;;18.70;77.50;;;;;;5000888;28;20030;-76
2021/08/18 00:22:56;;;;;;;7.75;3.50;;;18.60;77.50;;;;;;5012768;28;20500;-76
2021/08/18 00:25:21;;;;;;;7.88;3.30;;;18.60;77.60;;;;;;5011967;28;20050;-76
2021/08/18 00:27:47;;;;;;;7.05;3.67;;;18.60;77.70;;;;;;5005109;28;20026;-76
2021/08/18 00:30:13;;;;;;;5.10;2.30;;;18.50;77.90;;;;;;5011848;28;20579;-77
2021/08/18 00:32:39;;;;;;;10.27;2.50;;;18.50;77.70;;;;;;4999814;28;20034;-77
2021/08/18 00:35:06;;;;;;;5.75;3.53;;;18.50;78.00;;;;;;5014328;28;20049;-77
2021/08/18 00:37:31;;;;;;;12.43;4.50;;;18.40;78.20;;;;;;5002353;28;20034;-77
2021/08/18 00:39:57;;;;;;;5.93;2.92;;;18.40;78.70;;;;;;5008705;28;20030;-77
2021/08/18 00:42:23;;;;;;;12.70;3.20;;;18.40;78.80;;;;;;4994955;28;20041;-76
2021/08/18 00:44:48;;;;;;;7.80;3.45;;;18.40;78.60;;;;;;4997291;28;20116;-77
2021/08/18 00:47:14;;;;;;;6.00;3.03;;;18.40;78.60;;;;;;5015331;28;20037;-76
2021/08/18 00:49:40;;;;;;;8.70;3.13;;;18.50;78.60;;;;;;5011465;28;20034;-76
2021/08/18 00:52:06;;;;;;;6.28;3.25;;;18.50;78.60;;;;;;5013338;28;20018;-76
2021/08/18 00:54:32;;;;;;;12.48;3.63;;;18.40;78.50;;;;;;5013959;28;20042;-77
2021/08/18 00:57:00;;;;;;;8.32;3.13;;;18.40;78.60;;;;;;5007929;28;20052;-76
2021/08/18 00:59:27;;;;;;;5.70;3.00;;;18.50;78.50;;;;;;5004440;28;20057;-76
2021/08/18 01:01:53;;;;;;;9.77;3.13;;;18.40;78.30;;;;;;5013091;28;20478;-76
2021/08/18 01:04:18;;;;;;;5.85;2.65;;;18.40;78.20;;;;;;5012732;28;20030;-77
2021/08/18 01:06:45;;;;;;;7.13;3.55;;;18.40;78.20;;;;;;5011672;28;20083;-76
2021/08/18 01:09:14;;;;;;;5.38;2.17;;;18.30;78.50;;;;;;5012940;28;20033;-76
2021/08/18 01:11:44;;;;;;;4.75;2.22;;;18.30;78.40;;;;;;5013020;28;20029;-76
2021/08/18 01:14:10;;;;;;;3.28;1.80;;;18.30;78.40;;;;;;5004889;28;20413;-76
2021/08/18 01:16:42;;;;;;;9.38;2.05;;;18.20;78.40;;;;;;5007573;28;20121;-76
2021/08/18 01:19:10;;;;;;;4.05;2.15;;;18.20;78.70;;;;;;5000149;28;20539;-76
2021/08/18 01:21:40;;;;;;;6.63;1.80;;;18.10;78.80;;;;;;5014013;28;20044;-76
2021/08/18 01:24:10;;;;;;;9.82;2.65;;;18.10;78.90;;;;;;5010898;28;20116;-76
2021/08/18 01:26:37;;;;;;;5.88;2.63;;;18.00;79.10;;;;;;5012627;28;20068;-77
2021/08/18 01:29:03;;;;;;;6.78;3.55;;;18.00;79.40;;;;;;5000920;28;20022;-77
2021/08/18 01:31:29;;;;;;;17.65;2.50;;;18.00;79.70;;;;;;4999189;28;20038;-77
2021/08/18 01:33:59;;;;;;;5.38;2.90;;;17.90;79.50;;;;;;5011199;28;20021;-77
2021/08/18 01:36:25;;;;;;;4.25;1.55;;;17.90;79.80;;;;;;5001430;28;20437;-76
2021/08/18 01:38:51;;;;;;;1.40;1.13;;;17.90;79.60;;;;;;5013595;28;20026;-76
2021/08/18 01:41:17;;;;;;;5.72;1.75;;;17.90;79.60;;;;;;5021155;28;20059;-77
2021/08/18 01:43:42;;;;;;;5.70;2.28;;;17.90;79.70;;;;;;5015422;28;20046;-76
2021/08/18 01:46:10;;;;;;;3.78;1.95;;;17.80;79.90;;;;;;5003498;28;20532;-76
2021/08/18 01:48:36;;;;;;;1.75;1.33;;;17.80;79.80;;;;;;4998512;28;20131;-77
2021/08/18 01:51:06;;;;;;;6.70;2.67;;;17.80;79.80;;;;;;5002540;28;20029;-77
2021/08/18 01:53:40;;;;;;;7.32;2.70;;;17.80;80.10;;;;;;5017143;28;20041;-77
2021/08/18 01:56:08;;;;;;;6.65;3.25;;;17.80;80.50;;;;;;4999645;28;20046;-77
2021/08/18 01:58:37;;;;;;;3.85;1.50;;;17.70;80.70;;;;;;5012383;28;20505;-77
2021/08/18 02:01:05;;;;;;;6.40;2.97;;;17.70;80.50;;;;;;5009787;28;20169;-76
2021/08/18 02:03:30;;;;;;;8.10;3.03;;;17.70;80.70;;;;;;5001667;28;20482;-77
2021/08/18 02:05:56;;;;;;;6.55;3.20;;;17.70;80.80;;;;;;5011069;28;20087;-76
2021/08/18 02:08:21;;;;;;;4.93;2.67;;;17.70;80.80;;;;;;5010735;28;20057;-76
2021/08/18 02:10:47;;;;;;;3.45;1.65;;;17.70;80.90;;;;;;5010584;28;20038;-76
2021/08/18 02:13:15;;;;;;;6.43;2.30;;;17.70;80.50;;;;;;5008874;28;20060;-76
2021/08/18 02:15:41;;;;;;;7.75;2.55;;;17.70;80.70;;;;;;5001544;28;20116;-76
2021/08/18 02:18:08;;;;;;;9.43;2.35;;;17.70;80.90;;;;;;5006496;28;20578;-77
2021/08/18 02:20:36;;;;;;;5.53;2.63;;;17.70;80.90;;;;;;5008799;28;20073;-77
2021/08/18 02:23:02;;;;;;;2.75;1.65;;;17.60;81.00;;;;;;5023982;28;20040;-76
2021/08/18 02:25:28;;;;;;;2.05;1.40;;;17.60;80.90;;;;;;5010572;28;20133;-76
2021/08/18 02:27:54;;;;;;;1.95;1.75;;;17.60;81.00;;;;;;4999075;28;20041;-76
2021/08/18 02:30:23;;;;;;;4.82;1.90;;;17.70;81.10;;;;;;5011629;28;20030;-76
2021/08/18 02:32:49;;;;;;;3.63;1.48;;;17.60;81.30;;;;;;4998558;28;20424;-76
2021/08/18 02:35:15;;;;;;;4.53;2.30;;;17.60;81.40;;;;;;5011662;28;20375;-76
2021/08/18 02:37:41;;;;;;;5.97;2.63;;;17.60;81.60;;;;;;4998160;28;20036;-76
2021/08/18 02:40:09;;;;;;;2.95;1.75;;;17.60;82.10;;;;;;5004974;28;20046;-76
2021/08/18 02:42:35;;;;;;;2.97;1.60;;;17.60;82.30;;;;;;5006051;28;20026;-77
2021/08/18 02:45:01;;;;;;;3.55;1.75;;;17.60;82.40;;;;;;5004121;28;20470;-76
2021/08/18 02:47:27;;;;;;;5.82;1.80;;;17.60;82.90;;;;;;4994283;28;20027;-76
2021/08/18 02:49:53;;;;;;;1.38;1.02;;;17.50;83.40;;;;;;4993598;28;20042;-76
2021/08/18 02:52:19;;;;;;;2.70;1.67;;;17.50;83.60;;;;;;5003253;28;20079;-76
2021/08/18 02:54:45;;;;;;;3.10;1.45;;;17.50;83.80;;;;;;5010123;28;20069;-76
2021/08/18 02:57:11;;;;;;;3.28;1.77;;;17.50;84.00;;;;;;4999816;28;20080;-76
2021/08/18 02:59:37;;;;;;;4.72;1.98;;;17.50;84.30;;;;;;5010724;28;20077;-76
2021/08/18 03:02:02;;;;;;;9.02;2.15;;;17.40;84.60;;;;;;5009385;28;20034;-76
2021/08/18 03:04:28;;;;;;;3.80;1.60;;;17.40;84.90;;;;;;5011484;28;20124;-76
2021/08/18 03:06:54;;;;;;;5.45;2.17;;;17.40;85.20;;;;;;5008923;28;20501;-76
2021/08/18 03:09:22;;;;;;;2.55;1.60;;;17.40;85.40;;;;;;5011336;28;20038;-76
2021/08/18 03:11:48;;;;;;;3.03;1.05;;;17.40;85.60;;;;;;5003604;28;20482;-76
2021/08/18 03:14:14;;;;;;;1.95;1.20;;;17.30;85.60;;;;;;5003381;28;20034;-76
2021/08/18 03:16:40;;;;;;;2.92;1.52;;;17.30;86.20;;;;;;5002464;28;20045;-76
2021/08/18 03:19:05;;;;;;;2.42;1.50;;;17.40;85.60;;;;;;5008466;28;20101;-76
2021/08/18 03:21:31;;;;;;;3.58;1.80;;;17.30;85.60;;;;;;5014911;28;20128;-76
2021/08/18 03:23:57;;;;;;;2.13;1.33;;;17.40;85.80;;;;;;5012433;28;20046;-76
2021/08/18 03:26:22;;;;;;;4.68;2.08;;;17.30;86.00;;;;;;5007894;28;20038;-76
2021/08/18 03:28:48;;;;;;;1.73;0.75;;;17.30;86.00;;;;;;5008772;28;20037;-76
2021/08/18 03:31:14;;;;;;;5.30;2.05;;;17.30;86.20;;;;;;5001530;28;20117;-76
2021/08/18 03:33:39;;;;;;;3.15;1.90;;;17.30;86.20;;;;;;5015087;28;20359;-76
2021/08/18 03:36:05;;;;;;;4.10;2.20;;;17.30;86.40;;;;;;5014408;28;20048;-76
2021/08/18 03:38:31;;;;;;;2.05;1.23;;;17.30;86.60;;;;;;5014745;28;20436;-77
2021/08/18 03:40:56;;;;;;;4.05;1.58;;;17.30;86.30;;;;;;5013937;28;20057;-76
2021/08/18 03:43:22;;;;;;;3.63;1.92;;;17.40;86.40;;;;;;5012208;28;20512;-76
2021/08/18 03:45:48;;;;;;;2.45;1.30;;;17.40;86.50;;;;;;5005268;28;20045;-77
2021/08/18 03:48:14;;;;;;;2.50;1.33;;;17.30;86.50;;;;;;5013435;28;20026;-76
2021/08/18 03:50:39;;;;;;;3.50;1.77;;;17.40;86.50;;;;;;5012681;28;20037;-77
2021/08/18 03:53:05;;;;;;;3.38;1.83;;;17.40;86.70;;;;;;5010580;28;20560;-77
2021/08/18 03:55:31;;;;;;;3.03;1.38;;;17.40;86.70;;;;;;5004090;28;20125;-76
2021/08/18 03:57:56;;;;;;;2.25;1.35;;;17.40;86.80;;;;;;5004140;28;20083;-76
2021/08/18 04:00:22;;;;;;;7.28;2.45;;;17.30;86.80;;;;;;5001214;28;20064;-76
2021/08/18 04:02:48;;;;;;;6.50;1.80;;;17.40;87.10;;;;;;5003743;28;20418;-77
2021/08/18 04:05:14;;;;;;;5.85;2.60;;;17.40;87.00;;;;;;5000502;28;20041;-77
2021/08/18 04:07:41;;;;;;;6.25;2.80;;;17.40;87.00;;;;;;5003236;28;20032;-77
2021/08/18 04:10:07;;;;;;;3.13;1.45;;;17.40;87.00;;;;;;4999689;28;20116;-77
2021/08/18 04:12:51;;;;;;;3.80;1.80;;;17.40;86.80;;;;;;5012707;28;20032;-81
2021/08/18 04:15:17;;;;;;;9.82;3.80;;;17.40;86.90;;;;;;5001276;28;20038;-80
2021/08/18 04:17:43;;;;;;;8.40;3.53;;;17.40;87.70;;;;;;5010720;28;20493;-80
2021/08/18 04:20:09;;;;;;;7.18;3.10;;;17.50;88.30;;;;;;4999357;28;20330;-80
2021/08/18 04:22:34;;;;;;;12.32;3.95;;;17.50;88.40;;;;;;5010798;28;20490;-78
2021/08/18 04:25:00;;;;;;;7.28;3.50;;;17.50;88.50;;;;;;5013392;28;20072;-79
2021/08/18 04:27:26;;;;;;;8.40;3.70;;;17.60;88.50;;;;;;5010947;28;20038;-80
2021/08/18 04:29:51;;;;;;;8.82;3.53;;;17.70;88.80;;;;;;5002726;28;20017;-80
2021/08/18 04:32:17;;;;;;;6.18;3.45;;;17.70;88.80;;;;;;5013152;28;20466;-80
2021/08/18 04:34:42;;;;;;;10.85;4.15;;;17.80;88.30;;;;;;5018339;28;20041;-79
2021/08/18 04:37:10;;;;;;;9.68;3.50;;;17.80;88.00;;;;;;5032412;28;20044;-87
2021/08/18 04:39:36;;;;;;;6.63;3.22;;;17.90;87.70;;;;;;5013919;28;20087;-86
2021/08/18 04:42:01;;;;;;;9.30;3.53;;;17.90;88.20;;;;;;5004794;28;20247;-79
2021/08/18 04:44:27;;;;;;;7.95;3.40;;;17.90;88.10;;;;;;5010658;28;20497;-80
2021/08/18 04:46:55;;;;;;;6.18;2.92;;;18.00;87.10;;;;;;5013871;28;20087;-78
2021/08/18 04:49:21;;;;;;;6.72;2.63;;;18.00;86.40;;;;;;5013064;28;20022;-78
2021/08/18 04:51:47;;;;;;;5.03;1.75;;;18.00;85.50;;;;;;5014516;28;20025;-78
2021/08/18 04:54:15;;;;;;;7.10;3.30;;;17.90;84.70;;;;;;5013271;28;20481;-77
2021/08/18 04:56:41;;;;;;;8.18;3.50;;;17.90;84.80;;;;;;5013456;28;20116;-78
2021/08/18 04:59:06;;;;;;;9.45;3.78;;;17.90;85.00;;;;;;5006073;28;20145;-77
2021/08/18 05:01:32;;;;;;;6.05;2.78;;;17.90;85.10;;;;;;5005080;28;20542;-77
2021/08/18 05:03:58;;;;;;;10.27;3.17;;;17.90;85.20;;;;;;4999035;28;20018;-78
2021/08/18 05:06:23;;;;;;;5.22;2.50;;;17.90;84.80;;;;;;5004147;28;20061;-77
2021/08/18 05:08:49;;;;;;;12.15;3.13;;;17.90;84.70;;;;;;5001212;28;20470;-77
2021/08/18 05:11:14;;;;;;;5.75;2.28;;;17.90;84.70;;;;;;4996185;28;20026;-77
2021/08/18 05:13:40;;;;;;;5.95;2.00;;;17.90;84.60;;;;;;4998938;28;20046;-77
2021/08/18 05:16:06;;;;;;;6.75;2.60;;;17.90;84.40;;;;;;4999774;28;20160;-77
2021/08/18 05:18:31;;;;;;;6.90;2.70;;;17.80;84.60;;;;;;4995960;28;20038;-77
2021/08/18 05:20:57;;;;;;;1.15;1.02;;;17.90;85.10;;;;;;4998343;28;20049;-78
2021/08/18 05:23:23;;;;;;;2.58;1.23;;;17.80;85.10;;;;;;4996982;28;20109;-77
2021/08/18 05:25:48;;;;;;;4.95;2.20;;;17.80;85.40;;;;;;4996512;28;20034;-77
2021/08/18 05:28:14;;;;;;;1.15;1.00;;;17.80;85.80;;;;;;5006298;28;20496;-78
2021/08/18 05:30:40;;;;;;;4.50;1.63;;;17.70;86.10;;;;;;5002919;28;20037;-78
2021/08/18 05:33:05;;;;;;;6.85;1.65;;;17.70;86.50;;;;;;5004148;28;20029;-78
2021/08/18 05:35:31;;;;;;;2.47;1.33;;;17.70;87.30;;;;;;5002153;28;20038;-78
2021/08/18 05:37:57;;;;;;;1.85;1.27;;;17.70;87.60;;;;;;5003217;28;20026;-78
2021/08/18 05:40:22;;;;;;;4.50;1.52;;;17.60;88.50;;;;;;5001523;28;20026;-77
2021/08/18 05:42:48;;;;;;;1.63;1.27;;;17.60;88.30;;;;;;5007729;28;20025;-78
2021/08/18 05:45:14;;;;;;;2.22;1.33;;;17.60;88.70;;;;;;5008731;28;20034;-78
2021/08/18 05:47:39;;;;;;;1.95;1.25;;;17.60;89.00;;;;;;5007049;28;20033;-77
2021/08/18 05:50:05;;;;;;;2.03;1.27;;;17.60;89.20;;;;;;5006021;28;20500;-81
2021/08/18 05:52:31;;;;;;;2.17;1.17;;;17.50;89.40;;;;;;5005333;28;20026;-83
2021/08/18 05:55:01;;;;;;;2.60;1.13;;;17.50;89.80;;;;;;5006174;28;20478;-80
2021/08/18 05:57:27;;;;;;;1.42;1.25;;;17.50;89.80;;;;;;5012040;28;20116;-78
2021/08/18 05:59:53;;;;;;;4.20;1.48;;;17.50;89.80;;;;;;5010914;28;20740;-82
2021/08/18 06:02:18;;;;;;;1.75;0.82;;;17.50;90.00;;;;;;5008447;28;20087;-84
2021/08/18 06:04:44;;;;;;;3.85;2.15;;;17.50;90.00;;;;;;5012260;28;20029;-84
2021/08/18 06:07:10;;;;;;;2.65;1.40;;;17.60;90.10;;;;;;5001822;28;20474;-79
2021/08/18 06:09:39;;;;;;;2.42;1.00;;;17.60;90.10;;;;;;5002384;28;20032;-79
2021/08/18 06:12:06;;;;;;;1.95;0.90;;;17.60;90.20;;;;;;5004015;28;20172;-83
2021/08/18 06:14:31;;;;;;;1.30;0.65;;;17.60;90.10;;;;;;5007637;28;20077;-79
2021/08/18 06:16:57;;;;;;;0.47;0.47;;;17.60;90.20;;;;;;5008893;28;20053;-79
2021/08/18 06:19:25;;;;;;;3.00;2.00;;;17.70;90.20;;;;;;5011154;28;20034;-80
2021/08/18 06:21:51;;;;;;;1.20;0.77;;;17.60;90.20;;;;;;5024291;28;20037;-79
2021/08/18 06:26:53;;;;;;;3.00;1.20;;;17.60;90.30;;;;;;5000664;28;20066;-78
2021/08/18 06:29:19;;;;;;;0.60;0.60;;;17.60;90.40;;;;;;5002491;28;20678;-80
2021/08/18 06:31:48;;;;;;;1.35;1.10;;;17.70;90.40;;;;;;4995715;28;20030;-78
2021/08/18 06:34:14;;;;;;;0.90;0.73;;;17.70;90.50;;;;;;5002328;28;20384;-79
2021/08/18 06:36:43;;;;;;;2.50;1.30;;;17.60;90.60;;;;;;5002160;28;20030;-78
2021/08/18 06:39:08;;;;;;;0.88;0.88;;;17.70;90.60;;;;;;5003592;28;20466;-79
2021/08/18 06:41:34;;;;;;;1.58;1.38;;;17.70;90.70;;;;;;5005375;28;20035;-75
2021/08/18 06:44:03;;;;;;;0.95;0.82;;;17.70;90.70;;;;;;5011118;28;20030;-82
2021/08/18 06:46:31;;;;;;;3.28;1.50;;;17.70;90.70;;;;;;5010223;28;20037;-81
2021/08/18 06:48:57;;;;;;;1.50;1.35;;;17.70;90.70;;;;;;5010316;28;20041;-80
2021/08/18 06:51:22;;;;;;;7.13;1.60;;;17.70;90.70;;;;;;5011264;28;20042;-81
2021/08/18 06:53:48;;;;;;;1.23;1.10;;;17.80;90.80;;;;;;5009862;28;20034;-80
2021/08/18 06:56:14;;;;;;;2.20;1.25;;;17.80;90.70;;;;;;5010662;28;20064;-79
2021/08/18 06:58:39;;;;;;;3.35;1.60;;;17.80;90.90;;;;;;5004897;28;20022;-80
2021/08/18 07:01:05;;;;;;;1.30;0.90;;;17.80;90.90;;;;;;5007356;28;20030;-83
2021/08/18 07:03:34;;;;;;;0.63;0.63;;;17.80;91.10;;;;;;5001227;28;20025;-81
2021/08/18 07:06:00;;;;;;;1.90;1.35;;;17.80;91.10;;;;;;5006364;28;20519;-79
2021/08/18 07:08:25;;;;;;;4.18;0.93;;;17.80;91.10;;;;;;5014756;28;20030;-82
2021/08/18 07:10:53;;;;;;;4.55;1.48;;;17.80;91.10;;;;;;5003097;28;20022;-81
2021/08/18 07:13:19;;;;;;;1.98;0.93;;;17.80;91.00;;;;;;5013426;28;20038;-75
2021/08/18 07:15:45;;;;;;;2.92;1.60;;;17.80;90.90;;;;;;5004350;28;20046;-80
2021/08/18 07:18:10;;;;;;;1.02;0.70;;;17.80;90.90;;;;;;5000156;28;20121;-80
2021/08/18 07:20:36;;;;;;;1.48;0.60;;;17.80;90.80;;;;;;5002184;28;20033;-81
2021/08/18 07:23:02;;;;;;;1.83;1.30;;;17.90;90.80;;;;;;5005930;28;20037;-80
2021/08/18 07:25:27;;;;;;;0.82;0.82;;;17.90;90.80;;;;;;5001250;28;20080;-81
2021/08/18 07:27:53;;;;;;;1.25;1.02;;;17.90;90.80;;;;;;5007738;28;20026;-88
2021/08/18 07:30:19;;;;;;;2.00;1.33;;;17.90;90.80;;;;;;5009527;28;20030;-79
2021/08/18 07:32:44;;;;;;;1.80;1.27;;;17.90;90.70;;;;;;5002677;28;20482;-79
2021/08/18 07:35:10;;;;;;;3.53;2.38;;;18.00;90.80;;;;;;5009084;28;20133;-82
2021/08/18 07:37:39;;;;;;;3.72;1.70;;;18.00;90.80;;;;;;5010185;28;20100;-81
2021/08/18 07:40:05;;;;;;;6.72;1.63;;;18.00;90.70;;;;;;5012087;28;20030;-84
2021/08/18 07:42:31;;;;;;;3.20;2.10;;;18.10;90.80;;;;;;5011096;28;21362;-81
2021/08/18 07:44:57;;;;;;;3.97;1.58;;;18.00;90.90;;;;;;5006735;28;20516;-82
2021/08/18 07:47:23;;;;;;;0.88;0.82;;;18.10;90.90;;;;;;5011132;28;20028;-81
2021/08/18 07:49:48;;;;;;;3.22;1.52;;;18.10;91.00;;;;;;5000624;28;20029;-84
2021/08/18 07:52:14;;;;;;;5.25;2.20;;;18.10;91.00;;;;;;5022591;28;20029;-81
2021/08/18 07:54:40;;;;;;;1.88;1.45;;;18.10;91.00;;;;;;5012944;28;20053;-81
2021/08/18 07:57:06;;;;;;;1.73;1.15;;;18.10;90.90;;;;;;5010584;28;20025;-80
2021/08/18 07:59:31;;;;;;;1.67;1.35;;;18.20;91.00;;;;;;5007240;28;20437;-81
2021/08/18 08:01:59;;;;;;;3.35;1.80;;;18.20;90.90;;;;;;5014032;28;20470;-81
2021/08/18 08:04:25;;;;;;;0.93;0.90;;;18.30;91.10;;;;;;5014204;28;20113;-81
2021/08/18 08:06:52;;;;;;;2.45;1.60;;;18.30;91.10;;;;;;5006688;28;20034;-82
2021/08/18 08:09:18;;;;;;;3.83;0.93;;;18.30;91.00;;;;;;5016015;28;20030;-85
2021/08/18 08:11:43;;;;;;;2.00;0.93;;;18.30;91.00;;;;;;5017211;28;20482;-92
2021/08/18 08:14:09;;;;;;;0.77;0.77;;;18.30;91.00;;;;;;5010090;28;20027;-91
2021/08/18 08:16:35;;;;;;;4.72;0.90;;;18.30;90.90;;;;;;5014177;28;20501;-77
2021/08/18 08:19:00;;;;;;;3.65;1.30;;;18.30;90.90;;;;;;5016843;28;20517;-83
2021/08/18 08:21:27;;;;;;;0.90;0.82;;;18.30;90.90;;;;;;5015312;28;20474;-89
2021/08/18 08:23:53;;;;;;;3.25;1.17;;;18.40;90.90;;;;;;5006819;28;20042;-88
2021/08/18 08:26:18;;;;;;;3.42;1.77;;;18.40;90.80;;;;;;5002246;28;20034;-90
2021/08/18 08:28:44;;;;;;;0.68;0.68;;;18.40;90.90;;;;;;5008959;28;20030;-91
2021/08/18 08:31:09;;;;;;;1.52;1.23;;;18.40;90.90;;;;;;5005785;28;20030;-89
2021/08/18 08:33:35;;;;;;;1.50;1.10;;;18.40;90.90;;;;;;5008405;28;20099;-87
2021/08/18 08:36:01;;;;;;;5.75;1.17;;;18.40;90.90;;;;;;5005066;28;20042;-89
2021/08/18 08:38:26;;;;;;;2.28;1.10;;;18.40;91.00;;;;;;5005115;28;20018;-90
2021/08/18 08:40:52;;;;;;;1.40;1.13;;;18.40;91.00;;;;;;5012448;28;20034;-88
2021/08/18 08:43:19;;;;;;;1.13;0.95;;;18.40;91.00;;;;;;5007030;28;20026;-91
2021/08/18 08:45:48;;;;;;;3.30;1.00;;;18.40;91.10;;;;;;5004261;28;20033;-88
2021/08/18 08:48:18;;;;;;;2.75;1.23;;;18.50;91.20;;;;;;5005029;28;20034;-90
2021/08/18 08:50:45;;;;;;;0.93;0.82;;;18.50;91.20;;;;;;5005177;28;20034;-90
2021/08/18 08:53:11;;;;;;;2.35;0.95;;;18.60;91.10;;;;;;5015798;28;20034;-89
2021/08/18 08:55:37;;;;;;;3.45;1.75;;;18.60;91.20;;;;;;5008115;28;20037;-89
2021/08/18 08:58:03;;;;;;;0.57;0.57;;;18.60;91.10;;;;;;5004373;28;20033;-90
2021/08/18 09:00:29;;;;;;;2.22;1.10;;;18.60;91.10;;;;;;5003404;28;20042;-90
2021/08/18 09:03:15;;;;;;;1.63;1.35;;;18.70;91.10;;;;;;5003997;28;20030;-91
2021/08/18 09:05:43;;;;;;;2.92;1.23;;;18.70;91.10;;;;;;5004275;28;20042;-89
2021/08/18 09:08:16;;;;;;;1.67;0.90;;;18.70;91.20;;;;;;5010973;28;20026;-91
2021/08/18 09:11:11;;;;;;;2.28;1.52;;;18.80;91.30;;;;;;5009033;28;20022;-83
2021/08/18 09:13:42;;;;;;;3.47;1.55;;;18.80;91.40;;;;;;5007774;28;20034;-78
2021/08/18 09:16:09;;;;;;;2.15;1.67;;;18.80;91.50;;;;;;5000401;28;20401;-79
2021/08/18 09:18:53;;;;;;;1.25;0.98;;;18.80;91.50;;;;;;5009157;28;20033;-79
2021/08/18 09:21:36;;;;;;;2.67;1.50;;;18.90;91.80;;;;;;5012097;28;20029;-78
2021/08/18 09:24:11;;;;;;;3.20;1.40;;;18.90;91.60;;;;;;5010201;28;20053;-78
2021/08/18 09:26:41;;;;;;;2.45;1.20;;;18.90;91.60;;;;;;5012027;28;20034;-78
2021/08/18 09:29:06;;;;;;;3.28;1.67;;;18.90;91.50;;;;;;5009745;28;20026;-78
2021/08/18 09:31:32;;;;;;;3.38;1.80;;;19.00;91.40;;;;;;5010479;28;20045;-78
2021/08/18 09:33:58;;;;;;;1.85;1.40;;;19.00;91.50;;;;;;5009857;28;20034;-78
2021/08/18 09:36:26;;;;;;;1.98;1.45;;;19.00;91.40;;;;;;5009579;28;20073;-77
2021/08/18 09:39:21;;;;;;;1.77;1.45;;;19.10;91.40;;;;;;5002622;28;20046;-75
2021/08/18 09:41:48;;;;;;;4.25;1.60;;;19.10;91.30;;;;;;5000132;28;20053;-78
2021/08/18 09:44:14;;;;;;;1.92;1.30;;;19.10;91.30;;;;;;5009886;28;20040;-78
2021/08/18 09:46:40;;;;;;;4.43;2.30;;;19.10;91.30;;;;;;5001461;28;20113;-78
2021/08/18 09:49:10;;;;;;;4.43;1.70;;;19.10;91.30;;;;;;5014823;28;20079;-78
2021/08/18 09:51:37;;;;;;;6.50;2.45;;;19.10;91.30;;;;;;5008595;28;20389;-78
2021/08/18 09:54:17;;;;;;;5.45;1.70;;;19.10;91.30;;;;;;5009984;28;20030;-77
2021/08/18 09:56:47;;;;;;;2.10;1.27;;;19.20;91.30;;;;;;5009534;28;20042;-78
2021/08/18 09:59:14;;;;;;;2.63;1.48;;;19.10;91.30;;;;;;5004850;28;20038;-78
2021/08/18 10:01:40;;;;;;;7.70;2.30;;;19.20;91.30;;;;;;4997449;28;20034;-78
2021/08/18 10:04:06;;;;;;;6.15;2.13;;;19.20;91.30;;;;;;5010617;28;20523;-78
2021/08/18 10:06:32;;;;;;;3.25;1.95;;;19.20;91.30;;;;;;5011788;28;20076;-78
2021/08/18 10:08:58;;;;;;;4.15;2.50;;;19.30;91.30;;;;;;5009538;28;20030;-78
2021/08/18 10:11:25;;;;;;;5.75;3.03;;;19.30;91.40;;;;;;5010434;28;20038;-78
2021/08/18 10:13:54;;;;;;;2.30;1.73;;;19.30;91.40;;;;;;5009767;28;20026;-78
2021/08/18 10:16:21;;;;;;;6.60;2.35;;;19.40;91.50;;;;;;5011442;28;20033;-78
2021/08/18 10:18:48;;;;;;;3.97;1.80;;;19.30;91.40;;;;;;5010470;28;20125;-78
2021/08/18 10:21:22;;;;;;;4.28;2.13;;;19.40;91.40;;;;;;5012030;28;20091;-88
2021/08/18 10:23:58;;;;;;;3.88;2.33;;;19.40;91.50;;;;;;5002297;28;20258;-92
2021/08/18 10:26:39;;;;;;;8.32;3.22;;;19.40;91.60;;;;;;4997641;28;20069;-87
2021/08/18 10:29:09;;;;;;;7.63;3.25;;;19.40;91.60;;;;;;5002305;28;20065;-83
2021/08/18 10:31:41;;;;;;;5.55;3.10;;;19.40;91.70;;;;;;5001153;28;20073;-81
2021/08/18 10:34:10;;;;;;;4.03;2.08;;;19.50;91.70;;;;;;5009262;28;20101;-78
2021/08/18 10:36:42;;;;;;;5.35;3.95;;;19.50;91.70;;;;;;5009784;28;20573;-80
2021/08/18 10:39:26;;;;;;;8.45;3.40;;;19.50;91.60;;;;;;5014495;28;20041;-81
2021/08/18 10:42:11;;;;;;;5.38;3.65;;;19.50;91.60;;;;;;5002168;28;20469;-82
2021/08/18 10:44:48;;;;;;;6.45;3.95;;;19.50;91.60;;;;;;5011670;28;20029;-84
2021/08/18 10:47:24;;;;;;;7.78;4.55;;;19.60;91.60;;;;;;5007687;28;20042;-91
2021/08/18 10:49:54;;;;;;;8.57;3.40;;;19.60;91.60;;;;;;5011845;28;20026;-84
2021/08/18 10:52:28;;;;;;;10.90;3.60;;;19.60;91.70;;;;;;5012704;28;20158;-85
2021/08/18 10:55:18;;;;;;;7.97;3.08;;;19.60;91.70;;;;;;5006486;28;20464;-85
2021/08/18 10:57:49;;;;;;;7.38;3.22;;;19.60;91.70;;;;;;5013291;28;20394;-82
2021/08/18 11:00:16;;;;;;;6.15;3.75;;;19.60;91.80;;;;;;5016591;28;20030;-85
2021/08/18 11:03:01;;;;;;;3.10;2.42;;;19.70;91.90;;;;;;5016914;28;20026;-82
2021/08/18 11:05:35;;;;;;;5.75;3.17;;;19.70;91.90;;;;;;5002210;28;20061;-87
2021/08/18 11:08:20;;;;;;;10.80;5.20;;;19.80;91.70;;;;;;5019178;28;20034;-88
2021/08/18 11:10:51;;;;;;;6.72;3.90;;;19.80;91.60;;;;;;5015923;28;20022;-87
2021/08/18 11:13:38;;;;;;;8.15;3.92;;;19.90;91.50;;;;;;5014809;28;20176;-85
2021/08/18 11:16:15;;;;;;;7.05;3.75;;;19.90;91.30;;;;;;5015242;28;20397;-86
2021/08/18 11:18:47;;;;;;;6.07;3.88;;;19.90;91.10;;;;;;5002868;28;20038;-85
2021/08/18 11:21:17;;;;;;;3.20;2.30;;;19.90;91.00;;;;;;5004304;28;20103;-86
2021/08/18 11:23:52;;;;;;;6.47;4.15;;;20.00;91.00;;;;;;5016037;28;20057;-87
2021/08/18 11:26:21;;;;;;;8.20;4.20;;;20.10;90.90;;;;;;5010910;28;20036;-86
2021/08/18 11:29:15;;;;;;;6.70;3.95;;;20.10;90.90;;;;;;5022534;28;20034;-89
2021/08/18 11:31:49;;;;;;;5.15;3.13;;;20.20;90.80;;;;;;5007772;28;20045;-85
2021/08/18 11:34:37;;;;;;;;;;;20.20;90.80;;;;;;4999448;28;20037;-88
2021/08/18 11:37:12;;;;;;;11.35;3.67;;;20.30;90.80;;;;;;5015205;28;20289;-89
2021/08/18 11:39:41;;;;;;;4.57;3.33;;;20.30;90.80;;;;;;5011413;28;20035;-91
2021/08/18 11:42:14;;;;;;;8.07;4.15;;;20.40;90.80;;;;;;5000344;28;20022;-89
2021/08/18 11:44:42;;;;;;;;;;;20.40;90.50;;;;;;5006085;28;20033;-87
2021/08/18 11:47:18;;;;;;;3.20;2.50;;;20.40;90.30;;;;;;5010180;28;19913;-88
2021/08/18 11:49:47;;;;;;;3.75;2.55;;;20.30;90.20;;;;;;5009269;28;20041;-83
2021/08/18 11:52:21;;;;;;;6.47;2.22;;;20.30;90.30;;;;;;5008224;28;20495;-83
2021/08/18 11:54:58;;;;;;;6.38;3.78;;;20.40;90.30;;;;;;5005345;28;20497;-83
2021/08/18 11:57:25;;;;;;;5.80;3.08;;;20.40;90.20;;;;;;4998227;28;20391;-83
2021/08/18 11:59:52;;;;;;;9.77;3.60;;;20.50;90.10;;;;;;5001223;28;20030;-84
2021/08/18 12:02:21;;;;;;;5.95;4.05;;;20.50;90.00;;;;;;5014515;28;20022;-82
2021/08/18 12:04:48;;;;;;;6.53;4.05;;;20.60;90.00;;;;;;5009010;28;20047;-82
2021/08/18 12:07:19;;;;;;;5.90;3.25;;;20.60;89.90;;;;;;5012265;28;20503;-81
2021/08/18 12:09:47;;;;;;;8.13;4.30;;;20.60;89.80;;;;;;5010170;28;20100;-84
2021/08/18 12:12:14;;;;;;;5.57;2.20;;;20.70;89.60;;;;;;5008661;28;20026;-82
2021/08/18 12:14:45;;;;;;;3.65;2.45;;;20.70;89.40;;;;;;5005134;28;20486;-82
2021/08/18 12:17:11;;;;;;;7.72;3.72;;;20.70;89.40;;;;;;5006606;28;20036;-82
2021/08/18 12:19:39;;;;;;;7.55;3.72;;;20.80;89.10;;;;;;5007367;28;20062;-82
2021/08/18 12:22:24;;;;;;;4.45;2.67;;;20.80;88.80;;;;;;5010687;28;20030;-82
2021/08/18 12:24:52;;;;;;;6.75;2.83;;;20.80;88.80;;;;;;5010361;28;20125;-83
2021/08/18 12:27:23;;;;;;;3.85;2.33;;;20.80;88.70;;;;;;5011317;28;20397;-83
2021/08/18 12:29:59;;;;;;;6.45;2.95;;;20.80;88.70;;;;;;5010129;28;20038;-83
2021/08/18 12:32:25;;;;;;;5.72;3.05;;;20.80;88.70;;;;;;5006099;28;20528;-81
2021/08/18 12:34:59;;;;;;;3.25;2.30;;;20.80;88.60;;;;;;5006895;28;20123;-83
2021/08/18 12:37:29;;;;;;;6.55;3.03;;;20.90;88.50;;;;;;5013889;28;20720;-82
2021/08/18 12:39:59;;;;;;;5.57;3.25;;;20.90;88.50;;;;;;5008174;28;20034;-83
2021/08/18 12:42:30;;;;;;;5.65;3.40;;;20.90;88.50;;;;;;5005965;28;20477;-83
2021/08/18 12:45:26;;;;;;;9.27;3.30;;;20.90;88.40;;;;;;5007828;28;20034;-86
2021/08/18 12:47:52;;;;;;;6.43;3.67;;;20.90;88.20;;;;;;5009140;28;20046;-85
2021/08/18 12:50:37;;;;;;;8.57;2.40;;;20.90;87.90;;;;;;5006811;28;20389;-84
2021/08/18 12:53:08;;;;;;;12.32;4.00;;;20.90;87.90;;;;;;5011057;28;20041;-93
2021/08/18 12:55:34;;;;;;;3.92;2.08;;;20.90;87.70;;;;;;5006953;28;20588;-90